createdAt,value
2022-07-26T00:01:59.740Z,2.00
2022-07-26T00:04:28.274Z,1.70
2022-07-26T00:06:57.116Z,1.70
2022-07-26T00:09:24.719Z,1.83
2022-07-26T00:11:52.564Z,2.17
2022-07-26T00:14:20.390Z,2.10
2022-07-26T00:16:48.324Z,2.13
2022-07-26T00:19:16.026Z,2.17
2022-07-26T00:21:43.686Z,1.67
2022-07-26T00:24:11.425Z,2.00
2022-07-26T00:26:39.162Z,2.50
2022-07-26T00:29:07.976Z,1.73
2022-07-26T00:31:35.974Z,2.10
2022-07-26T00:34:03.660Z,2.00
2022-07-26T00:36:31.137Z,2.00
2022-07-26T00:38:59.202Z,1.80
2022-07-26T00:41:26.683Z,2.20
2022-07-26T00:44:00.484Z,2.67
2022-07-26T00:46:28.754Z,2.23
2022-07-26T00:48:56.781Z,2.40
2022-07-26T00:51:24.783Z,1.90
2022-07-26T00:53:52.438Z,1.97
2022-07-26T00:56:20.914Z,2.87
2022-07-26T00:58:48.609Z,1.90
2022-07-26T01:01:16.228Z,2.10
2022-07-26T01:03:44.457Z,1.90
2022-07-26T01:06:12.545Z,2.10
2022-07-26T01:08:40.773Z,2.10
2022-07-26T01:11:08.433Z,2.27
2022-07-26T01:13:35.943Z,1.83
2022-07-26T01:16:04.762Z,2.67
2022-07-26T01:18:32.249Z,1.90
2022-07-26T01:21:13.273Z,2.00
2022-07-26T01:23:44.525Z,2.23
2022-07-26T01:26:13.814Z,2.20
2022-07-26T01:28:42.810Z,2.20
2022-07-26T01:31:11.821Z,2.93
2022-07-26T01:33:39.766Z,2.27
2022-07-26T01:36:08.837Z,2.27
2022-07-26T01:38:36.528Z,2.70
2022-07-26T01:41:05.627Z,2.43
2022-07-26T01:43:33.213Z,2.97
2022-07-26T01:46:00.836Z,2.50
2022-07-26T01:48:28.727Z,2.93
2022-07-26T01:50:58.155Z,2.70
2022-07-26T01:53:25.929Z,2.73
2022-07-26T01:55:53.593Z,3.00
2022-07-26T01:58:22.917Z,3.13
2022-07-26T02:00:50.886Z,3.60
2022-07-26T02:03:18.632Z,2.30
2022-07-26T02:05:46.265Z,3.13
2022-07-26T02:08:13.818Z,2.80
2022-07-26T02:11:00.078Z,3.43
2022-07-26T02:13:41.634Z,3.90
2022-07-26T02:16:15.969Z,3.33
2022-07-26T02:18:43.500Z,3.00
2022-07-26T02:21:11.041Z,3.40
2022-07-26T02:23:40.713Z,3.23
2022-07-26T02:26:11.082Z,2.87
2022-07-26T02:28:38.611Z,3.33
2022-07-26T02:31:06.241Z,3.57
2022-07-26T02:33:34.250Z,3.10
2022-07-26T02:36:02.297Z,3.37
2022-07-26T02:38:29.855Z,3.17
2022-07-26T02:40:57.578Z,3.07
2022-07-26T02:43:25.065Z,3.43
2022-07-26T02:46:03.725Z,3.47
2022-07-26T02:48:32.141Z,3.40
2022-07-26T02:51:00.592Z,4.17
2022-07-26T02:53:28.466Z,3.20
2022-07-26T02:55:56.592Z,3.10
2022-07-26T02:58:26.926Z,3.23
2022-07-26T03:00:55.081Z,3.77
2022-07-26T03:03:22.605Z,3.20
2022-07-26T03:05:56.146Z,4.10
2022-07-26T03:08:23.958Z,3.53
2022-07-26T03:10:52.500Z,3.53
2022-07-26T03:13:20.054Z,2.83
2022-07-26T03:15:47.588Z,3.20
2022-07-26T03:18:15.176Z,3.23
2022-07-26T03:20:42.651Z,3.07
2022-07-26T03:23:10.217Z,3.50
2022-07-26T03:25:39.335Z,3.43
2022-07-26T03:28:06.878Z,3.77
2022-07-26T03:30:35.139Z,3.37
2022-07-26T03:33:03.333Z,3.00
2022-07-26T03:35:30.848Z,3.83
2022-07-26T03:38:04.535Z,4.37
2022-07-26T03:40:32.109Z,4.40
2022-07-26T03:42:59.552Z,5.57
2022-07-26T03:45:27.162Z,4.60
2022-07-26T03:47:54.648Z,4.60
2022-07-26T03:50:22.429Z,4.73
2022-07-26T03:52:49.956Z,4.50
2022-07-26T03:55:36.686Z,5.43
2022-07-26T03:58:04.236Z,5.20
2022-07-26T04:00:31.926Z,5.70
2022-07-26T04:03:00.056Z,6.27
2022-07-26T04:05:27.712Z,5.90
2022-07-26T04:07:55.989Z,7.63
2022-07-26T04:10:24.372Z,6.80
2022-07-26T04:12:52.293Z,6.43
2022-07-26T04:15:21.371Z,6.90
2022-07-26T04:17:49.773Z,7.57
2022-07-26T04:20:18.202Z,6.97
2022-07-26T04:22:46.400Z,6.90
2022-07-26T04:25:14.151Z,6.13
2022-07-26T04:27:43.501Z,7.50
2022-07-26T04:30:16.983Z,6.90
2022-07-26T04:32:48.739Z,5.90
2022-07-26T04:35:16.578Z,5.83
2022-07-26T04:37:46.427Z,6.37
2022-07-26T04:40:23.696Z,7.40
2022-07-26T04:42:52.801Z,6.80
2022-07-26T04:45:22.374Z,7.30
2022-07-26T04:47:51.757Z,8.90
2022-07-26T04:50:24.167Z,8.80
2022-07-26T04:52:53.039Z,8.53
2022-07-26T04:55:27.072Z,8.07
2022-07-26T04:57:54.786Z,7.60
2022-07-26T05:00:25.265Z,7.80
2022-07-26T05:03:01.934Z,6.90
2022-07-26T05:05:35.319Z,6.60
2022-07-26T05:08:04.233Z,6.23
2022-07-26T05:10:38.391Z,6.10
2022-07-26T05:13:07.849Z,6.10
2022-07-26T05:15:37.164Z,5.90
2022-07-26T05:18:13.729Z,5.87
2022-07-26T05:20:41.610Z,4.83
2022-07-26T05:23:09.708Z,5.80
2022-07-26T05:25:39.254Z,4.60
2022-07-26T05:28:06.720Z,5.00
2022-07-26T05:30:35.041Z,4.73
2022-07-26T05:33:20.678Z,5.03
2022-07-26T05:35:48.586Z,5.57
2022-07-26T05:38:16.061Z,5.20
2022-07-26T05:40:48.603Z,4.50
2022-07-26T05:43:19.299Z,5.40
2022-07-26T05:45:47.113Z,5.73
2022-07-26T05:48:15.024Z,4.80
2022-07-26T05:50:43.270Z,5.20
2022-07-26T05:53:10.887Z,4.70
2022-07-26T05:55:38.996Z,5.50
2022-07-26T05:58:07.721Z,4.93
2022-07-26T06:00:35.784Z,5.43
2022-07-26T06:03:22.102Z,4.93
2022-07-26T06:05:57.163Z,5.17
2022-07-26T06:08:27.287Z,5.90
2022-07-26T06:10:55.700Z,5.67
2022-07-26T06:13:24.327Z,5.23
2022-07-26T06:15:52.781Z,4.90
2022-07-26T06:18:20.479Z,5.47
2022-07-26T06:20:50.405Z,5.70
2022-07-26T06:23:33.930Z,6.40
2022-07-26T06:26:06.061Z,5.13
2022-07-26T06:28:34.866Z,4.30
2022-07-26T06:31:02.724Z,4.67
2022-07-26T06:33:30.344Z,5.53
2022-07-26T06:35:58.209Z,4.20
2022-07-26T06:38:27.094Z,4.87
2022-07-26T06:40:54.978Z,4.83
2022-07-26T06:43:22.660Z,6.57
2022-07-26T06:45:51.176Z,4.40
2022-07-26T06:48:18.909Z,4.50
2022-07-26T06:50:46.476Z,5.60
2022-07-26T06:53:14.075Z,4.73
2022-07-26T06:55:43.566Z,7.37
2022-07-26T06:58:11.045Z,6.50
2022-07-26T07:00:40.735Z,6.83
2022-07-26T07:03:09.311Z,6.63
2022-07-26T07:05:37.216Z,6.70
2022-07-26T07:08:07.410Z,5.93
2022-07-26T07:10:36.423Z,7.00
2022-07-26T07:13:04.662Z,5.53
2022-07-26T07:15:32.180Z,5.83
2022-07-26T07:18:00.002Z,4.53
2022-07-26T07:20:28.499Z,5.77
2022-07-26T07:22:56.356Z,5.60
2022-07-26T07:25:30.876Z,4.10
2022-07-26T07:28:00.513Z,4.97
2022-07-26T07:30:29.390Z,4.40
2022-07-26T07:32:57.546Z,4.37
2022-07-26T07:35:31.568Z,4.37
2022-07-26T07:38:00.375Z,3.70
2022-07-26T07:40:28.371Z,4.20
2022-07-26T07:42:59.979Z,4.10
2022-07-26T07:45:28.077Z,3.63
2022-07-26T07:47:56.417Z,4.13
2022-07-26T07:50:28.256Z,4.30
2022-07-26T07:52:57.950Z,4.00
2022-07-26T07:55:43.920Z,4.33
2022-07-26T07:58:18.935Z,5.33
2022-07-26T08:00:48.683Z,5.80
2022-07-26T08:03:18.735Z,6.63
2022-07-26T08:05:50.556Z,5.53
2022-07-26T08:08:22.335Z,5.20
2022-07-26T08:10:53.241Z,5.13
2022-07-26T08:13:24.937Z,4.50
2022-07-26T08:15:56.048Z,4.50
2022-07-26T08:18:25.381Z,4.37
2022-07-26T08:20:54.692Z,4.73
2022-07-26T08:23:23.452Z,5.00
2022-07-26T08:25:57.845Z,4.50
2022-07-26T08:28:46.939Z,4.77
2022-07-26T08:31:20.131Z,4.10
2022-07-26T08:33:49.735Z,4.43
2022-07-26T08:36:18.688Z,4.73
2022-07-26T08:38:47.608Z,4.03
2022-07-26T08:41:18.808Z,3.80
2022-07-26T08:43:52.822Z,3.93
2022-07-26T08:46:27.642Z,4.00
2022-07-26T08:48:58.854Z,3.67
2022-07-26T08:51:27.688Z,3.70
2022-07-26T08:54:07.864Z,4.27
2022-07-26T08:56:49.738Z,3.23
2022-07-26T08:59:22.441Z,4.40
2022-07-26T09:02:09.716Z,4.17
2022-07-26T09:04:46.571Z,4.07
2022-07-26T09:07:21.096Z,4.53
2022-07-26T09:10:15.337Z,4.13
2022-07-26T09:12:45.091Z,4.27
2022-07-26T09:15:28.299Z,4.10
2022-07-26T09:17:58.642Z,3.20
2022-07-26T09:20:32.293Z,4.40
2022-07-26T09:23:14.250Z,3.97
2022-07-26T09:25:46.959Z,4.30
2022-07-26T09:28:32.309Z,3.00
2022-07-26T09:31:06.799Z,3.00
2022-07-26T09:33:51.660Z,3.43
2022-07-26T09:36:20.590Z,3.40
2022-07-26T09:39:04.917Z,4.60
2022-07-26T09:41:39.096Z,4.10
2022-07-26T09:44:26.801Z,4.30
2022-07-26T09:46:59.369Z,5.10
2022-07-26T09:49:40.264Z,5.43
2022-07-26T09:52:28.920Z,5.30
2022-07-26T09:55:09.842Z,6.03
2022-07-26T09:57:38.088Z,7.63
2022-07-26T10:00:08.407Z,8.37
2022-07-26T10:02:36.024Z,7.60
2022-07-26T10:05:03.747Z,4.60
2022-07-26T10:07:32.307Z,3.20
2022-07-26T10:10:14.121Z,2.33
2022-07-26T10:12:45.540Z,2.07
2022-07-26T10:15:52.221Z,2.13
2022-07-26T10:18:44.085Z,2.50
2022-07-26T10:21:27.479Z,2.20
2022-07-26T10:24:00.888Z,2.83
2022-07-26T10:26:38.947Z,2.63
2022-07-26T10:29:26.800Z,2.57
2022-07-26T10:32:06.046Z,1.80
2022-07-26T10:34:41.330Z,1.87
2022-07-26T10:37:23.962Z,2.50
2022-07-26T10:40:22.889Z,2.13
2022-07-26T10:42:52.234Z,2.10
2022-07-26T10:45:24.520Z,2.20
2022-07-26T10:48:24.610Z,2.30
2022-07-26T10:50:55.303Z,2.80
2022-07-26T10:53:27.817Z,3.20
2022-07-26T10:56:02.066Z,3.03
2022-07-26T10:58:44.900Z,3.40
2022-07-26T11:01:14.209Z,2.47
2022-07-26T11:03:45.083Z,2.27
2022-07-26T11:06:20.286Z,2.53
2022-07-26T11:08:49.505Z,2.30
2022-07-26T11:11:32.972Z,1.83
2022-07-26T11:14:14.915Z,1.93
2022-07-26T11:16:50.120Z,1.20
2022-07-26T11:19:26.098Z,1.30
2022-07-26T11:22:01.133Z,1.13
2022-07-26T11:24:30.591Z,0.80
2022-07-26T11:27:04.937Z,0.87
2022-07-26T11:29:38.531Z,0.83
2022-07-26T11:32:25.534Z,0.97
2022-07-26T11:35:06.863Z,1.10
2022-07-26T11:37:34.606Z,0.97
2022-07-26T11:40:02.840Z,0.90
2022-07-26T11:42:30.515Z,0.80
2022-07-26T11:44:58.788Z,0.90
2022-07-26T11:47:27.203Z,0.80
2022-07-26T11:52:44.426Z,1.10
2022-07-26T11:55:12.581Z,1.23
2022-07-26T11:57:40.688Z,1.80
2022-07-26T12:00:10.657Z,0.80
2022-07-26T12:02:38.687Z,0.83
2022-07-26T12:05:24.030Z,1.07
2022-07-26T12:08:07.476Z,0.77
2022-07-26T12:10:35.590Z,0.90
2022-07-26T12:13:15.550Z,0.93
2022-07-26T12:15:53.947Z,0.70
2022-07-26T12:18:35.401Z,0.90
2022-07-26T12:21:09.740Z,1.03
2022-07-26T12:23:50.944Z,1.00
2022-07-26T12:26:34.239Z,0.70
2022-07-26T12:29:21.788Z,0.80
2022-07-26T12:32:14.494Z,0.90
2022-07-26T12:35:16.061Z,0.77
2022-07-26T12:37:46.577Z,1.07
2022-07-26T12:40:28.904Z,0.93
2022-07-26T12:43:02.914Z,1.10
2022-07-26T12:45:35.849Z,1.00
2022-07-26T12:48:11.393Z,0.77
2022-07-26T12:50:39.341Z,1.23
2022-07-26T12:53:21.159Z,0.80
2022-07-26T12:55:49.056Z,1.10
2022-07-26T12:58:16.589Z,1.50
2022-07-26T13:00:47.766Z,1.10
2022-07-26T13:03:15.907Z,0.90
2022-07-26T13:05:43.461Z,1.10
2022-07-26T13:08:10.955Z,1.20
2022-07-26T13:10:38.527Z,0.90
2022-07-26T13:13:09.049Z,1.47
2022-07-26T13:15:37.986Z,1.10
2022-07-26T13:18:09.090Z,1.00
2022-07-26T13:20:41.107Z,0.73
2022-07-26T13:23:13.967Z,1.10
2022-07-26T13:25:48.762Z,1.43
2022-07-26T13:28:22.414Z,1.00
2022-07-26T13:30:51.202Z,1.17
2022-07-26T13:33:18.764Z,1.13
2022-07-26T13:35:46.508Z,1.60
2022-07-26T13:38:19.757Z,0.93
2022-07-26T13:40:47.588Z,1.67
2022-07-26T13:43:16.565Z,1.23
2022-07-26T13:45:45.066Z,0.90
2022-07-26T13:48:12.660Z,1.03
2022-07-26T13:50:40.460Z,1.03
2022-07-26T13:53:08.269Z,1.33
2022-07-26T13:55:35.886Z,1.20
2022-07-26T13:58:09.492Z,1.30
2022-07-26T14:00:40.803Z,1.20
2022-07-26T14:03:08.960Z,1.00
2022-07-26T14:05:37.261Z,1.10
2022-07-26T14:08:06.377Z,1.03
2022-07-26T14:10:39.790Z,0.90
2022-07-26T14:13:09.713Z,0.97
2022-07-26T14:15:37.961Z,1.13
2022-07-26T14:18:06.569Z,1.13
2022-07-26T14:20:35.031Z,1.40
2022-07-26T14:23:02.490Z,1.17
2022-07-26T14:25:30.333Z,1.07
2022-07-26T14:28:00.855Z,1.23
2022-07-26T14:30:28.558Z,1.37
2022-07-26T14:32:56.069Z,0.80
2022-07-26T14:35:24.385Z,0.77
2022-07-26T14:37:52.136Z,0.90
2022-07-26T14:40:20.004Z,0.90
2022-07-26T14:42:47.699Z,0.63
2022-07-26T14:45:16.246Z,0.90
2022-07-26T14:47:44.856Z,0.93
2022-07-26T14:50:15.658Z,0.70
2022-07-26T14:52:49.300Z,0.70
2022-07-26T14:55:21.701Z,0.80
2022-07-26T14:57:53.251Z,0.70
2022-07-26T15:00:20.989Z,0.70
2022-07-26T15:02:51.321Z,0.80
2022-07-26T15:05:20.265Z,1.20
2022-07-26T15:07:48.110Z,1.00
2022-07-26T15:10:17.294Z,0.70
2022-07-26T15:12:45.280Z,0.90
2022-07-26T15:15:13.232Z,1.07
2022-07-26T15:17:41.307Z,1.00
2022-07-26T15:20:09.318Z,0.90
2022-07-26T15:22:37.468Z,0.90
2022-07-26T15:25:06.326Z,1.20
2022-07-26T15:27:34.696Z,1.20
2022-07-26T15:30:06.998Z,0.90
2022-07-26T15:32:38.215Z,1.70
2022-07-26T15:35:07.643Z,1.63
2022-07-26T15:37:44.280Z,1.60
2022-07-26T15:40:13.675Z,1.30
2022-07-26T15:42:46.855Z,1.20
2022-07-26T15:45:16.816Z,1.30
2022-07-26T15:47:56.255Z,1.60
2022-07-26T15:50:27.688Z,1.30
2022-07-26T15:52:55.305Z,1.80
2022-07-26T15:55:23.186Z,1.43
2022-07-26T15:57:51.157Z,1.40
2022-07-26T16:00:19.253Z,1.40
2022-07-26T16:02:47.620Z,1.30
2022-07-26T16:05:16.869Z,1.40
2022-07-26T16:07:46.456Z,1.30
2022-07-26T16:10:16.564Z,1.40
2022-07-26T16:12:44.750Z,1.37
2022-07-26T16:15:13.029Z,1.80
2022-07-26T16:17:41.609Z,1.20
2022-07-26T16:20:10.795Z,1.30
2022-07-26T16:22:41.932Z,1.90
2022-07-26T16:25:13.856Z,2.20
2022-07-26T16:27:45.678Z,1.77
2022-07-26T16:30:15.517Z,2.40
2022-07-26T16:32:43.995Z,2.23
2022-07-26T16:35:12.458Z,2.50
2022-07-26T16:37:41.657Z,2.40
2022-07-26T16:40:11.527Z,1.90
2022-07-26T16:42:39.101Z,2.57
2022-07-26T16:45:09.241Z,3.00
2022-07-26T16:47:37.431Z,1.73
2022-07-26T16:50:08.130Z,2.50
2022-07-26T16:52:35.933Z,2.17
2022-07-26T16:55:04.744Z,2.03
2022-07-26T16:57:32.310Z,1.63
2022-07-26T16:59:59.983Z,1.83
2022-07-26T17:02:27.609Z,1.53
2022-07-26T17:04:57.478Z,1.90
2022-07-26T17:07:26.274Z,2.37
2022-07-26T17:09:56.913Z,1.80
2022-07-26T17:12:26.496Z,2.00
2022-07-26T17:14:54.972Z,1.50
2022-07-26T17:17:22.739Z,1.93
2022-07-26T17:19:51.625Z,1.97
2022-07-26T17:22:19.844Z,2.07
2022-07-26T17:24:49.338Z,2.50
2022-07-26T17:27:17.916Z,2.37
2022-07-26T17:29:45.674Z,2.00
2022-07-26T17:32:13.349Z,1.60
2022-07-26T17:34:42.070Z,1.70
2022-07-26T17:37:12.531Z,2.03
2022-07-26T17:39:51.784Z,2.10
2022-07-26T17:42:20.616Z,2.43
2022-07-26T17:44:48.600Z,2.23
2022-07-26T17:47:18.235Z,3.17
2022-07-26T17:50:36.014Z,1.90
2022-07-26T17:52:52.682Z,1.80
2022-07-26T17:55:21.839Z,2.20
2022-07-26T17:57:51.350Z,1.80
2022-07-26T18:00:23.247Z,2.10
2022-07-26T18:02:54.646Z,2.47
2022-07-26T18:05:22.642Z,2.03
2022-07-26T18:07:50.821Z,2.13
2022-07-26T18:10:19.621Z,1.93
2022-07-26T18:12:47.198Z,1.70
2022-07-26T18:15:16.197Z,1.87
2022-07-26T18:18:02.325Z,1.80
2022-07-26T18:20:30.096Z,1.80
2022-07-26T18:22:59.589Z,2.07
2022-07-26T18:25:27.093Z,2.10
2022-07-26T18:27:54.719Z,1.97
2022-07-26T18:30:22.872Z,2.07
2022-07-26T18:32:50.799Z,2.40
2022-07-26T18:35:18.452Z,2.00
2022-07-26T18:37:46.845Z,1.80
2022-07-26T18:40:14.535Z,2.00
2022-07-26T18:42:42.492Z,2.10
2022-07-26T18:45:10.753Z,2.90
2022-07-26T18:47:38.526Z,2.07
2022-07-26T18:50:08.068Z,2.57
2022-07-26T18:52:36.505Z,2.17
2022-07-26T18:55:12.396Z,1.93
2022-07-26T18:57:44.451Z,1.83
2022-07-26T19:00:20.462Z,2.30
2022-07-26T19:02:48.807Z,1.83
2022-07-26T19:05:16.768Z,1.90
2022-07-26T19:07:46.294Z,1.80
2022-07-26T19:10:14.058Z,2.10
2022-07-26T19:12:42.356Z,1.90
2022-07-26T19:15:11.454Z,2.23
2022-07-26T19:17:39.300Z,1.83
2022-07-26T19:20:10.407Z,2.20
2022-07-26T19:22:40.565Z,1.97
2022-07-26T19:25:10.617Z,1.50
2022-07-26T19:27:39.308Z,1.90
2022-07-26T19:30:11.381Z,1.70
2022-07-26T19:32:39.830Z,2.07
2022-07-26T19:35:09.261Z,1.70
2022-07-26T19:37:37.153Z,2.00
2022-07-26T19:40:06.722Z,2.07
2022-07-26T19:42:34.338Z,1.70
2022-07-26T19:45:02.014Z,1.70
2022-07-26T19:47:30.654Z,1.80
2022-07-26T19:49:58.952Z,2.13
2022-07-26T19:52:26.472Z,1.77
2022-07-26T19:54:54.279Z,1.80
2022-07-26T19:57:22.436Z,1.67
2022-07-26T19:59:50.580Z,1.97
2022-07-26T20:02:18.406Z,2.50
2022-07-26T20:04:46.398Z,1.57
2022-07-26T20:07:19.462Z,2.30
2022-07-26T20:09:52.087Z,1.60
2022-07-26T20:12:21.497Z,1.23
2022-07-26T20:14:49.044Z,1.53
2022-07-26T20:17:17.224Z,2.00
2022-07-26T20:19:44.994Z,1.60
2022-07-26T20:22:12.654Z,1.40
2022-07-26T20:24:41.077Z,1.20
2022-07-26T20:27:08.887Z,1.60
2022-07-26T20:29:36.846Z,1.60
2022-07-26T20:32:05.080Z,1.33
2022-07-26T20:34:32.610Z,1.30
2022-07-26T20:37:00.141Z,2.47
2022-07-26T20:39:28.275Z,1.60
2022-07-26T20:41:57.281Z,1.50
2022-07-26T20:44:28.398Z,1.67
2022-07-26T20:46:56.453Z,1.40
2022-07-26T20:49:24.144Z,1.23
2022-07-26T20:51:51.787Z,1.40
2022-07-26T20:54:19.292Z,1.40
2022-07-26T20:56:46.821Z,1.70
2022-07-26T20:59:14.831Z,1.40
2022-07-26T21:01:44.102Z,1.40
2022-07-26T21:04:12.184Z,1.70
2022-07-26T21:06:39.828Z,1.53
2022-07-26T21:09:08.994Z,1.60
2022-07-26T21:11:39.925Z,1.10
2022-07-26T21:14:07.514Z,1.63
2022-07-26T21:16:36.619Z,1.97
2022-07-26T21:19:05.989Z,1.37
2022-07-26T21:21:34.810Z,1.77
2022-07-26T21:24:02.886Z,1.30
2022-07-26T21:26:30.634Z,1.50
2022-07-26T21:28:59.149Z,1.63
2022-07-26T21:31:27.731Z,1.77
2022-07-26T21:33:55.694Z,1.60
2022-07-26T21:36:23.452Z,1.47
2022-07-26T21:38:50.941Z,1.30
2022-07-26T21:41:19.128Z,1.53
2022-07-26T21:43:47.008Z,1.70
2022-07-26T21:46:15.686Z,1.30
2022-07-26T21:48:44.196Z,2.20
2022-07-26T21:51:11.861Z,1.60
2022-07-26T21:53:39.864Z,1.60
2022-07-26T21:56:07.707Z,1.40
2022-07-26T21:58:36.867Z,1.57
2022-07-26T22:01:08.004Z,1.57
2022-07-26T22:03:39.461Z,1.30
2022-07-26T22:06:09.447Z,1.37
2022-07-26T22:08:38.914Z,1.50
2022-07-26T22:11:07.162Z,1.40
2022-07-26T22:13:35.110Z,1.30
2022-07-26T22:16:03.502Z,1.40
2022-07-26T22:18:31.664Z,1.47
2022-07-26T22:21:01.128Z,1.53
2022-07-26T22:23:31.956Z,1.53
2022-07-26T22:26:04.416Z,1.57
2022-07-26T22:28:35.379Z,1.30
2022-07-26T22:31:02.955Z,1.40
2022-07-26T22:33:30.541Z,1.60
2022-07-26T22:35:58.113Z,1.30
2022-07-26T22:38:25.821Z,1.37
2022-07-26T22:40:53.446Z,1.40
2022-07-26T22:43:21.560Z,2.90
2022-07-26T22:45:49.313Z,1.87
2022-07-26T22:48:16.945Z,1.63
2022-07-26T22:50:45.071Z,1.60
2022-07-26T22:53:12.647Z,1.70
2022-07-26T22:55:41.051Z,1.27
2022-07-26T22:58:09.044Z,1.17
2022-07-26T23:00:37.788Z,1.40
2022-07-26T23:03:09.698Z,1.20
2022-07-26T23:05:49.208Z,1.47
2022-07-26T23:08:44.435Z,1.60
2022-07-26T23:11:06.526Z,1.70
2022-07-26T23:13:34.534Z,1.83
2022-07-26T23:16:02.381Z,2.07
2022-07-26T23:18:31.771Z,1.50
2022-07-26T23:21:00.269Z,1.60
2022-07-26T23:23:29.686Z,1.50
2022-07-26T23:26:00.902Z,1.40
2022-07-26T23:28:36.782Z,1.97
2022-07-26T23:31:10.350Z,1.40
2022-07-26T23:33:50.679Z,1.50
2022-07-26T23:36:28.152Z,1.57
2022-07-26T23:39:00.656Z,1.67
2022-07-26T23:41:29.013Z,2.60
2022-07-26T23:43:58.715Z,1.80
2022-07-26T23:46:27.651Z,1.67
2022-07-26T23:48:58.800Z,1.60
2022-07-26T23:51:26.455Z,1.63
2022-07-26T23:53:55.036Z,2.37
2022-07-26T23:56:23.467Z,1.70
2022-07-26T23:58:51.465Z,2.47
